createdAt,value
2023-03-13T00:00:34.613Z,5.60
2023-03-13T00:05:57.672Z,4.20
2023-03-13T00:11:06.923Z,4.60
2023-03-13T00:16:13.762Z,4.40
2023-03-13T00:21:19.582Z,5.60
2023-03-13T00:26:25.307Z,3.70
2023-03-13T00:31:33.063Z,5.50
2023-03-13T00:36:36.986Z,5.60
2023-03-13T00:41:41.116Z,4.20
2023-03-13T00:46:45.042Z,6.30
2023-03-13T00:51:48.982Z,4.20
2023-03-13T00:56:53.005Z,3.60
2023-03-13T01:01:57.055Z,4.80
2023-03-13T01:07:01.064Z,3.10
2023-03-13T01:12:05.432Z,4.20
2023-03-13T01:17:09.758Z,3.40
2023-03-13T01:22:13.683Z,4.00
2023-03-13T01:27:17.632Z,3.30
2023-03-13T01:32:22.294Z,4.20
2023-03-13T01:37:26.515Z,3.30
2023-03-13T01:42:30.742Z,4.10
2023-03-13T01:47:35.793Z,3.10
2023-03-13T01:52:51.918Z,2.80
2023-03-13T01:58:00.883Z,3.50
2023-03-13T02:03:10.394Z,2.90
2023-03-13T02:08:38.693Z,4.10
2023-03-13T02:13:44.068Z,4.00
2023-03-13T02:18:49.093Z,3.60
2023-03-13T02:24:07.982Z,2.70
2023-03-13T02:29:18.884Z,3.00
2023-03-13T02:34:30.877Z,2.70
2023-03-13T02:39:36.266Z,2.40
2023-03-13T02:44:41.824Z,4.60
2023-03-13T02:49:46.362Z,2.60
2023-03-13T02:54:53.580Z,2.40
2023-03-13T02:59:58.825Z,3.00
2023-03-13T03:05:03.169Z,1.70
2023-03-13T03:10:08.738Z,2.00
2023-03-13T03:15:13.603Z,2.20
2023-03-13T03:20:21.206Z,3.60
2023-03-13T03:25:25.568Z,3.00
2023-03-13T03:30:31.000Z,2.20
2023-03-13T03:35:39.045Z,2.50
2023-03-13T03:40:43.970Z,2.60
2023-03-13T03:45:48.064Z,1.90
2023-03-13T03:50:52.679Z,2.60
2023-03-13T03:55:57.893Z,2.10
2023-03-13T04:01:02.161Z,2.30
2023-03-13T04:06:07.513Z,2.60
2023-03-13T04:11:12.987Z,2.20
2023-03-13T04:16:20.758Z,2.30
2023-03-13T04:21:25.556Z,3.10
2023-03-13T04:26:35.525Z,2.20
2023-03-13T04:31:39.881Z,2.20
2023-03-13T04:36:58.230Z,1.70
2023-03-13T04:42:34.702Z,2.30
2023-03-13T04:48:01.468Z,1.80
2023-03-13T04:53:24.406Z,1.90
2023-03-13T04:59:04.667Z,3.70
2023-03-13T05:04:27.339Z,1.70
2023-03-13T05:09:57.347Z,2.00
2023-03-13T05:15:39.899Z,2.50
2023-03-13T05:21:10.203Z,1.50
2023-03-13T05:26:29.282Z,1.50
2023-03-13T05:31:51.828Z,1.70
2023-03-13T05:37:18.786Z,2.70
2023-03-13T05:42:43.922Z,2.80
2023-03-13T05:48:20.172Z,1.50
2023-03-13T05:53:59.820Z,1.70
2023-03-13T05:59:24.297Z,1.60
2023-03-13T06:04:48.675Z,1.70
2023-03-13T06:09:53.350Z,2.00
2023-03-13T06:14:57.379Z,1.20
2023-03-13T06:20:20.136Z,1.80
2023-03-13T06:25:25.907Z,1.20
2023-03-13T06:30:29.730Z,1.60
2023-03-13T06:35:41.037Z,1.50
2023-03-13T06:40:53.584Z,1.90
2023-03-13T06:45:57.696Z,1.40
2023-03-13T06:51:01.844Z,1.40
2023-03-13T06:56:06.691Z,1.60
2023-03-13T07:01:13.021Z,2.40
2023-03-13T07:06:17.515Z,6.50
2023-03-13T07:11:21.686Z,5.60
2023-03-13T07:16:25.783Z,5.60
2023-03-13T07:21:29.927Z,4.50
2023-03-13T07:26:34.338Z,2.80
2023-03-13T07:31:39.809Z,4.80
2023-03-13T07:36:44.163Z,3.20
2023-03-13T07:41:48.119Z,6.60
2023-03-13T07:46:53.984Z,8.40
2023-03-13T07:51:58.008Z,3.50
2023-03-13T07:57:03.069Z,7.50
2023-03-13T08:02:07.402Z,8.40
2023-03-13T08:07:12.466Z,8.80
2023-03-13T08:12:16.582Z,6.10
2023-03-13T08:17:22.122Z,6.50
2023-03-13T08:22:28.022Z,6.80
2023-03-13T08:27:31.747Z,5.80
2023-03-13T08:32:36.556Z,6.40
2023-03-13T08:37:40.354Z,5.40
2023-03-13T08:42:44.265Z,8.10
2023-03-13T08:47:53.702Z,7.20
2023-03-13T08:52:57.653Z,3.70
2023-03-13T08:58:04.570Z,11.80
2023-03-13T09:03:08.926Z,8.60
2023-03-13T09:08:13.034Z,4.80
2023-03-13T09:13:16.847Z,3.00
2023-03-13T09:18:20.800Z,3.70
2023-03-13T09:23:25.625Z,11.80
2023-03-13T09:28:29.774Z,4.60
2023-03-13T09:33:34.008Z,5.50
2023-03-13T09:38:39.588Z,8.20
2023-03-13T09:44:17.777Z,5.90
2023-03-13T09:49:31.020Z,4.90
2023-03-13T09:55:13.307Z,7.80
2023-03-13T10:00:40.230Z,6.00
2023-03-13T10:05:49.461Z,10.50
2023-03-13T10:11:11.381Z,6.20
2023-03-13T10:21:24.120Z,10.20
2023-03-13T10:26:31.163Z,11.70
2023-03-13T10:31:37.562Z,15.20
2023-03-13T10:43:55.278Z,12.70
2023-03-13T10:49:03.405Z,14.40
2023-03-13T10:54:26.792Z,20.70
2023-03-13T10:59:31.726Z,15.00
2023-03-13T11:04:39.335Z,13.50
2023-03-13T11:09:43.266Z,8.60
2023-03-13T11:14:47.326Z,12.70
2023-03-13T11:20:03.193Z,10.80
2023-03-13T11:25:25.443Z,11.50
2023-03-13T11:31:01.190Z,18.00
2023-03-13T11:36:17.221Z,12.00
2023-03-13T11:41:39.880Z,8.50
2023-03-13T11:47:14.901Z,17.40
2023-03-13T11:52:30.788Z,15.80
2023-03-13T11:57:53.370Z,13.60
2023-03-13T12:03:12.527Z,15.30
2023-03-13T12:08:21.698Z,17.20
2023-03-13T12:13:37.901Z,11.30
2023-03-13T12:18:44.668Z,8.90
2023-03-13T12:24:08.485Z,24.20
2023-03-13T12:29:50.163Z,8.90
2023-03-13T12:35:18.963Z,9.70
2023-03-13T12:40:45.364Z,10.20
2023-03-13T12:46:01.452Z,11.60
2023-03-13T12:51:20.423Z,10.30
2023-03-13T12:56:36.704Z,10.10
2023-03-13T13:01:44.703Z,9.90
2023-03-13T13:07:07.497Z,7.40
2023-03-13T13:12:24.070Z,11.50
2023-03-13T13:17:33.662Z,10.80
2023-03-13T13:22:37.470Z,5.80
2023-03-13T13:27:54.109Z,10.60
2023-03-13T13:33:20.544Z,6.40
2023-03-13T13:38:37.276Z,6.60
2023-03-13T13:43:45.826Z,5.80
2023-03-13T13:49:15.112Z,13.80
2023-03-13T13:54:18.940Z,7.10
2023-03-13T13:59:27.520Z,8.30
2023-03-13T14:04:40.327Z,5.90
2023-03-13T14:09:47.616Z,8.30
2023-03-13T14:15:15.411Z,5.80
2023-03-13T14:20:28.434Z,3.80
2023-03-13T14:26:18.309Z,5.50
2023-03-13T14:31:34.174Z,4.50
2023-03-13T14:37:16.911Z,9.60
2023-03-13T14:42:21.474Z,5.80
2023-03-13T14:47:32.026Z,6.80
2023-03-13T14:52:36.306Z,3.50
2023-03-13T14:57:56.256Z,2.90
2023-03-13T15:03:17.127Z,3.80
2023-03-13T15:08:25.060Z,4.20
2023-03-13T15:13:37.515Z,4.20
2023-03-13T15:18:41.489Z,4.70
2023-03-13T15:24:14.258Z,4.40
2023-03-13T15:29:18.736Z,4.30
2023-03-13T15:34:25.633Z,2.80
2023-03-13T15:39:32.386Z,3.50
2023-03-13T15:44:38.167Z,6.60
2023-03-13T15:49:42.141Z,4.60
2023-03-13T15:54:47.080Z,5.80
2023-03-13T15:59:52.338Z,4.10
2023-03-13T16:04:56.471Z,8.00
2023-03-13T16:10:00.407Z,2.70
2023-03-13T16:15:05.630Z,7.50
2023-03-13T16:20:21.980Z,5.10
2023-03-13T16:25:26.324Z,6.40
2023-03-13T16:30:33.320Z,3.30
2023-03-13T16:35:37.611Z,2.80
2023-03-13T16:40:41.570Z,4.30
2023-03-13T16:45:46.995Z,2.10
2023-03-13T16:50:51.194Z,5.30
2023-03-13T16:55:56.234Z,3.40
2023-03-13T17:01:05.948Z,7.90
2023-03-13T17:06:15.991Z,5.30
2023-03-13T17:11:24.001Z,7.60
2023-03-13T17:16:34.130Z,4.00
2023-03-13T17:21:38.913Z,4.20
2023-03-13T17:26:43.048Z,3.70
2023-03-13T17:31:49.152Z,4.60
2023-03-13T17:36:53.962Z,2.30
2023-03-13T17:42:01.273Z,4.30
2023-03-13T17:47:12.647Z,4.60
2023-03-13T17:52:18.447Z,3.70
2023-03-13T17:57:24.962Z,5.90
2023-03-13T18:02:31.969Z,4.60
2023-03-13T18:07:36.172Z,3.60
2023-03-13T18:12:42.370Z,3.80
2023-03-13T18:17:47.958Z,5.10
2023-03-13T18:22:53.022Z,12.80
2023-03-13T18:28:00.113Z,6.10
2023-03-13T18:33:06.833Z,8.90
2023-03-13T18:38:14.698Z,4.70
2023-03-13T18:43:20.617Z,6.70
2023-03-13T18:48:26.666Z,4.60
2023-03-13T18:53:32.763Z,2.30
2023-03-13T18:58:37.992Z,2.80
2023-03-13T19:03:43.276Z,10.30
2023-03-13T19:08:51.181Z,5.40
2023-03-13T19:14:01.335Z,8.50
2023-03-13T19:19:22.387Z,6.80
2023-03-13T19:24:28.809Z,8.90
2023-03-13T19:29:37.286Z,5.90
2023-03-13T19:34:44.119Z,9.60
2023-03-13T19:39:53.636Z,7.20
2023-03-13T19:45:00.364Z,4.20
2023-03-13T19:50:16.568Z,5.80
2023-03-13T19:55:24.676Z,4.30
2023-03-13T20:00:30.822Z,5.90
2023-03-13T20:05:37.841Z,5.10
2023-03-13T20:10:43.332Z,5.90
2023-03-13T20:15:49.956Z,7.20
2023-03-13T20:20:56.742Z,5.40
2023-03-13T20:26:10.685Z,6.50
2023-03-13T20:31:20.721Z,8.10
2023-03-13T20:36:30.938Z,8.80
2023-03-13T20:41:36.515Z,8.80
2023-03-13T20:46:43.105Z,11.50
2023-03-13T20:51:49.785Z,8.90
2023-03-13T20:56:56.716Z,8.50
2023-03-13T21:02:03.836Z,7.60
2023-03-13T21:07:12.173Z,8.20
2023-03-13T21:12:18.378Z,10.70
2023-03-13T21:17:22.738Z,8.60
2023-03-13T21:22:30.846Z,9.70
2023-03-13T21:27:36.706Z,13.00
2023-03-13T21:32:41.514Z,13.40
2023-03-13T21:37:45.852Z,5.20
2023-03-13T21:42:50.169Z,11.00
2023-03-13T21:47:56.909Z,11.60
2023-03-13T21:53:01.802Z,10.10
2023-03-13T21:58:08.736Z,16.70
2023-03-13T22:03:17.898Z,6.60
2023-03-13T22:08:32.060Z,11.20
2023-03-13T22:13:40.250Z,10.20
2023-03-13T22:18:50.586Z,14.70
2023-03-13T22:23:58.625Z,13.40
2023-03-13T22:29:05.037Z,7.30
2023-03-13T22:34:08.975Z,6.90
2023-03-13T22:39:13.006Z,7.40
2023-03-13T22:44:17.570Z,10.30
2023-03-13T22:49:21.377Z,18.00
2023-03-13T22:54:26.033Z,11.70
2023-03-13T22:59:30.150Z,10.40
2023-03-13T23:04:34.083Z,12.30
2023-03-13T23:09:38.425Z,9.60
2023-03-13T23:14:42.448Z,8.70
2023-03-13T23:19:46.692Z,12.60
2023-03-13T23:24:53.283Z,7.70
2023-03-13T23:29:57.217Z,9.20
2023-03-13T23:35:03.710Z,6.70
2023-03-13T23:40:10.692Z,8.20
2023-03-13T23:45:14.640Z,8.50
2023-03-13T23:50:19.132Z,8.50
2023-03-13T23:55:23.110Z,7.80
